createdAt,value
2018-02-22T00:00:49.151Z,46.97
2018-02-22T00:01:38.193Z,41.10
2018-02-22T00:02:27.248Z,39.53
2018-02-22T00:03:16.322Z,45.63
2018-02-22T00:04:05.377Z,42.38
2018-02-22T00:04:54.449Z,31.50
2018-02-22T00:05:43.503Z,26.58
2018-02-22T00:06:32.567Z,26.00
2018-02-22T00:07:21.597Z,25.30
2018-02-22T00:08:10.643Z,16.75
2018-02-22T00:08:59.674Z,22.35
2018-02-22T00:09:48.720Z,17.73
2018-02-22T00:10:37.831Z,20.88
2018-02-22T00:11:26.880Z,15.82
2018-02-22T00:12:15.942Z,18.35
2018-02-22T00:13:05.017Z,20.90
2018-02-22T00:13:54.054Z,17.40
2018-02-22T00:14:43.092Z,20.77
2018-02-22T00:15:32.160Z,17.87
2018-02-22T00:16:21.395Z,18.15
2018-02-22T00:17:10.433Z,20.67
2018-02-22T00:17:59.489Z,23.80
2018-02-22T00:18:48.538Z,24.95
2018-02-22T00:19:37.589Z,22.05
2018-02-22T00:20:26.626Z,21.33
2018-02-22T00:21:15.677Z,24.48
2018-02-22T00:22:04.750Z,28.10
2018-02-22T00:22:53.839Z,20.33
2018-02-22T00:23:42.890Z,23.25
2018-02-22T00:24:31.936Z,26.52
2018-02-22T00:25:20.985Z,22.17
2018-02-22T00:26:10.040Z,35.60
2018-02-22T00:26:59.110Z,34.88
2018-02-22T00:27:48.402Z,28.42
2018-02-22T00:28:37.600Z,28.70
2018-02-22T00:29:26.648Z,27.40
2018-02-22T00:30:15.695Z,29.52
2018-02-22T00:31:04.783Z,28.55
2018-02-22T00:31:53.956Z,22.65
2018-02-22T00:32:42.974Z,26.60
2018-02-22T00:33:32.311Z,25.55
2018-02-22T00:34:22.982Z,23.25
2018-02-22T00:35:12.033Z,24.00
2018-02-22T00:36:01.085Z,23.87
2018-02-22T00:36:50.131Z,19.37
2018-02-22T00:37:39.182Z,20.45
2018-02-22T00:38:28.222Z,21.23
2018-02-22T00:39:17.314Z,21.75
2018-02-22T00:40:06.346Z,22.77
2018-02-22T00:40:55.430Z,23.55
2018-02-22T00:41:44.480Z,27.58
2018-02-22T00:42:33.547Z,24.48
2018-02-22T00:43:22.600Z,20.27
2018-02-22T00:44:11.884Z,15.15
2018-02-22T00:45:00.925Z,19.87
2018-02-22T00:45:49.982Z,18.77
2018-02-22T00:46:39.059Z,22.13
2018-02-22T00:47:28.105Z,24.10
2018-02-22T00:48:17.166Z,21.50
2018-02-22T00:49:06.211Z,25.80
2018-02-22T00:49:55.287Z,22.70
2018-02-22T00:50:44.332Z,23.73
2018-02-22T00:51:33.389Z,25.98
2018-02-22T00:52:22.538Z,30.37
2018-02-22T00:53:11.584Z,26.92
2018-02-22T00:54:00.626Z,25.65
2018-02-22T00:54:49.673Z,26.73
2018-02-22T00:55:38.733Z,22.75
2018-02-22T00:56:27.784Z,25.12
2018-02-22T00:57:16.858Z,20.23
2018-02-22T00:58:05.943Z,20.12
2018-02-22T00:58:55.007Z,16.75
2018-02-22T00:59:44.039Z,19.62
2018-02-22T01:00:33.081Z,19.42
2018-02-22T01:01:22.110Z,19.12
2018-02-22T01:02:11.166Z,20.15
2018-02-22T01:03:00.210Z,20.80
2018-02-22T01:03:49.324Z,41.20
2018-02-22T01:04:38.380Z,46.00
2018-02-22T01:05:27.427Z,40.38
2018-02-22T01:06:16.480Z,45.30
2018-02-22T01:07:05.538Z,48.35
2018-02-22T01:07:54.582Z,47.62
2018-02-22T01:08:43.657Z,43.63
2018-02-22T01:09:32.825Z,44.35
2018-02-22T01:10:21.881Z,41.88
2018-02-22T01:11:10.948Z,39.25
2018-02-22T01:11:59.995Z,32.53
2018-02-22T01:12:49.044Z,34.65
2018-02-22T01:13:38.097Z,30.88
2018-02-22T01:14:27.148Z,33.10
2018-02-22T01:15:16.280Z,35.75
2018-02-22T01:16:05.332Z,35.30
2018-02-22T01:16:54.376Z,29.52
2018-02-22T01:17:43.411Z,27.20
2018-02-22T01:18:32.467Z,22.58
2018-02-22T01:19:21.526Z,27.60
2018-02-22T01:20:10.571Z,28.02
2018-02-22T01:21:00.125Z,28.48
2018-02-22T01:21:49.162Z,28.35
2018-02-22T01:22:38.219Z,29.02
2018-02-22T01:23:27.284Z,28.05
2018-02-22T01:24:16.347Z,28.45
2018-02-22T01:25:05.404Z,27.95
2018-02-22T01:25:54.442Z,20.15
2018-02-22T01:26:43.590Z,43.55
2018-02-22T01:27:32.652Z,36.17
2018-02-22T01:28:21.690Z,38.35
2018-02-22T01:29:10.746Z,49.38
2018-02-22T01:29:59.797Z,47.53
2018-02-22T01:30:48.839Z,45.30
2018-02-22T01:31:37.887Z,46.65
2018-02-22T01:32:26.995Z,38.30
2018-02-22T01:33:16.052Z,21.73
2018-02-22T01:34:05.086Z,20.65
2018-02-22T01:34:55.887Z,20.33
2018-02-22T01:35:44.926Z,26.25
2018-02-22T01:36:33.969Z,25.33
2018-02-22T01:37:23.034Z,23.67
2018-02-22T01:38:12.112Z,27.95
2018-02-22T01:39:01.156Z,23.77
2018-02-22T01:39:50.208Z,23.10
2018-02-22T01:40:39.285Z,20.75
2018-02-22T01:41:28.337Z,25.45
2018-02-22T01:42:17.384Z,23.10
2018-02-22T01:43:06.420Z,53.97
2018-02-22T01:43:55.713Z,28.17
2018-02-22T01:44:44.764Z,29.42
2018-02-22T01:45:33.823Z,26.12
2018-02-22T01:46:22.875Z,25.90
2018-02-22T01:47:11.911Z,25.20
2018-02-22T01:48:00.946Z,25.80
2018-02-22T01:48:49.990Z,23.38
2018-02-22T01:49:39.145Z,25.23
2018-02-22T01:50:28.194Z,23.92
2018-02-22T01:51:17.246Z,18.80
2018-02-22T01:52:06.291Z,21.98
2018-02-22T01:52:55.338Z,21.92
2018-02-22T01:53:44.391Z,19.30
2018-02-22T01:54:33.436Z,22.92
2018-02-22T01:55:22.531Z,21.10
2018-02-22T01:56:11.580Z,21.23
2018-02-22T01:57:00.637Z,24.35
2018-02-22T01:57:49.673Z,20.80
2018-02-22T01:58:38.712Z,25.65
2018-02-22T01:59:27.772Z,21.58
2018-02-22T02:00:16.831Z,22.98
2018-02-22T02:01:06.111Z,27.00
2018-02-22T02:01:55.167Z,25.67
2018-02-22T02:02:44.214Z,26.52
2018-02-22T02:03:33.256Z,22.80
2018-02-22T02:04:22.319Z,26.02
2018-02-22T02:05:11.495Z,24.08
2018-02-22T02:06:00.549Z,27.37
2018-02-22T02:06:49.600Z,29.48
2018-02-22T02:07:38.639Z,36.28
2018-02-22T02:08:27.678Z,25.40
2018-02-22T02:09:16.719Z,28.42
2018-02-22T02:10:05.764Z,24.70
2018-02-22T02:10:54.893Z,25.55
2018-02-22T02:11:43.931Z,23.55
2018-02-22T02:12:32.963Z,27.27
2018-02-22T02:13:22.001Z,28.65
2018-02-22T02:14:11.072Z,27.42
2018-02-22T02:15:00.132Z,27.37
2018-02-22T02:15:49.218Z,25.75
2018-02-22T02:16:38.255Z,26.90
2018-02-22T02:17:27.304Z,28.35
2018-02-22T02:18:16.371Z,22.17
2018-02-22T02:19:05.406Z,22.58
2018-02-22T02:19:54.434Z,22.92
2018-02-22T02:20:43.544Z,23.23
2018-02-22T02:21:33.125Z,21.87
2018-02-22T02:22:22.193Z,21.87
2018-02-22T02:23:11.246Z,22.05
2018-02-22T02:24:00.291Z,31.55
2018-02-22T02:24:49.328Z,33.95
2018-02-22T02:25:38.381Z,38.72
2018-02-22T02:26:27.429Z,38.20
2018-02-22T02:27:16.604Z,38.28
2018-02-22T02:28:08.528Z,41.58
2018-02-22T02:28:57.587Z,36.72
2018-02-22T02:29:46.627Z,37.83
2018-02-22T02:30:35.673Z,36.30
2018-02-22T02:31:25.030Z,37.05
2018-02-22T02:32:14.076Z,38.55
2018-02-22T02:33:03.185Z,37.63
2018-02-22T02:33:52.236Z,30.55
2018-02-22T02:34:41.312Z,31.83
2018-02-22T02:35:30.384Z,29.02
2018-02-22T02:36:19.452Z,23.40
2018-02-22T02:37:08.490Z,21.52
2018-02-22T02:37:57.535Z,19.52
2018-02-22T02:38:46.869Z,18.65
2018-02-22T02:39:35.917Z,18.00
2018-02-22T02:40:24.961Z,22.27
2018-02-22T02:41:14.066Z,15.50
2018-02-22T02:42:03.128Z,15.88
2018-02-22T02:42:52.159Z,16.02
2018-02-22T02:43:41.199Z,15.80
2018-02-22T02:44:30.261Z,19.48
2018-02-22T02:45:19.319Z,18.55
2018-02-22T02:46:08.381Z,14.43
2018-02-22T02:46:57.520Z,14.23
2018-02-22T02:47:46.565Z,15.02
2018-02-22T02:48:35.627Z,22.87
2018-02-22T02:49:24.696Z,27.00
2018-02-22T02:50:13.730Z,20.30
2018-02-22T02:51:02.781Z,17.73
2018-02-22T02:51:51.828Z,21.62
2018-02-22T02:52:40.914Z,19.20
2018-02-22T02:53:29.971Z,17.87
2018-02-22T02:54:19.030Z,17.05
2018-02-22T02:55:08.111Z,14.20
2018-02-22T02:55:57.164Z,21.12
2018-02-22T02:56:46.235Z,15.52
2018-02-22T02:57:35.444Z,14.18
2018-02-22T02:58:24.708Z,16.60
2018-02-22T02:59:13.762Z,15.57
2018-02-22T03:00:02.810Z,16.50
2018-02-22T03:00:51.957Z,16.92
2018-02-22T03:01:40.996Z,16.77
2018-02-22T03:02:30.130Z,18.83
2018-02-22T03:03:19.196Z,18.33
2018-02-22T03:04:08.244Z,17.45
2018-02-22T03:04:57.315Z,16.77
2018-02-22T03:05:46.390Z,23.05
2018-02-22T03:06:35.433Z,24.67
2018-02-22T03:07:24.494Z,23.87
2018-02-22T03:08:13.581Z,27.02
2018-02-22T03:09:02.623Z,26.98
2018-02-22T03:09:51.679Z,28.92
2018-02-22T03:10:40.726Z,42.05
2018-02-22T03:11:29.779Z,35.15
2018-02-22T03:12:18.822Z,43.60
2018-02-22T03:13:07.864Z,42.00
2018-02-22T03:13:57.135Z,38.38
2018-02-22T03:14:46.180Z,29.58
2018-02-22T03:15:35.220Z,33.80
2018-02-22T03:16:24.296Z,31.10
2018-02-22T03:17:13.338Z,27.60
2018-02-22T03:18:02.394Z,27.77
2018-02-22T03:18:51.445Z,31.48
2018-02-22T03:19:40.555Z,34.42
2018-02-22T03:20:29.613Z,31.90
2018-02-22T03:21:18.664Z,29.95
2018-02-22T03:22:07.717Z,34.50
2018-02-22T03:22:56.774Z,36.33
2018-02-22T03:23:45.857Z,73.72
2018-02-22T03:24:34.892Z,47.65
2018-02-22T03:25:23.984Z,45.95
2018-02-22T03:26:13.035Z,37.60
2018-02-22T03:27:02.078Z,34.60
2018-02-22T03:27:51.126Z,43.08
2018-02-22T03:28:42.830Z,33.65
2018-02-22T03:29:32.088Z,32.00
2018-02-22T03:30:21.142Z,29.75
2018-02-22T03:31:10.207Z,27.02
2018-02-22T03:31:59.300Z,31.00
2018-02-22T03:32:48.325Z,32.08
2018-02-22T03:33:37.384Z,27.52
2018-02-22T03:34:26.481Z,32.08
2018-02-22T03:35:15.528Z,28.58
2018-02-22T03:36:04.593Z,27.20
2018-02-22T03:36:53.641Z,25.67
2018-02-22T03:37:42.736Z,28.67
2018-02-22T03:38:31.876Z,28.62
2018-02-22T03:39:20.929Z,31.05
2018-02-22T03:40:09.971Z,33.38
2018-02-22T03:40:59.044Z,34.13
2018-02-22T03:41:48.083Z,38.60
2018-02-22T03:42:37.119Z,37.47
2018-02-22T03:43:26.168Z,31.12
2018-02-22T03:44:15.263Z,41.72
2018-02-22T03:45:04.314Z,42.62
2018-02-22T03:45:53.364Z,44.80
2018-02-22T03:46:42.781Z,45.85
2018-02-22T03:47:31.829Z,46.90
2018-02-22T03:48:20.861Z,44.08
2018-02-22T03:49:09.907Z,48.30
2018-02-22T03:49:58.956Z,53.05
2018-02-22T03:50:48.010Z,53.42
2018-02-22T03:51:37.084Z,43.38
2018-02-22T03:52:26.134Z,51.15
2018-02-22T03:53:15.187Z,49.67
2018-02-22T03:54:04.214Z,50.88
2018-02-22T03:54:53.263Z,51.25
2018-02-22T03:55:42.310Z,34.33
2018-02-22T03:56:31.351Z,38.15
2018-02-22T03:57:20.573Z,36.95
2018-02-22T03:58:09.630Z,33.53
2018-02-22T03:58:58.670Z,34.03
2018-02-22T03:59:47.713Z,32.50
2018-02-22T04:00:36.776Z,33.17
2018-02-22T04:01:25.813Z,35.88
2018-02-22T04:02:14.862Z,35.95
2018-02-22T04:03:03.935Z,39.70
2018-02-22T04:03:52.998Z,40.67
2018-02-22T04:04:42.076Z,42.47
2018-02-22T04:05:31.330Z,50.58
2018-02-22T04:06:20.380Z,49.70
2018-02-22T04:07:09.428Z,49.75
2018-02-22T04:07:58.710Z,46.90
2018-02-22T04:08:48.001Z,49.65
2018-02-22T04:09:37.056Z,58.15
2018-02-22T04:10:26.102Z,50.88
2018-02-22T04:11:15.143Z,55.20
2018-02-22T04:12:04.209Z,32.55
2018-02-22T04:12:53.245Z,38.72
2018-02-22T04:13:42.353Z,41.85
2018-02-22T04:14:31.451Z,36.55
2018-02-22T04:15:20.483Z,35.78
2018-02-22T04:16:09.526Z,35.15
2018-02-22T04:16:58.609Z,23.95
2018-02-22T04:17:47.646Z,21.58
2018-02-22T04:18:36.688Z,23.45
2018-02-22T04:19:25.761Z,25.65
2018-02-22T04:20:14.829Z,20.88
2018-02-22T04:21:06.250Z,18.73
2018-02-22T04:21:55.477Z,17.98
2018-02-22T04:22:44.514Z,21.55
2018-02-22T04:23:33.554Z,18.67
2018-02-22T04:24:22.606Z,17.40
2018-02-22T04:25:11.649Z,21.98
2018-02-22T04:26:00.696Z,18.92
2018-02-22T04:26:49.736Z,19.98
2018-02-22T04:27:38.835Z,17.62
2018-02-22T04:28:27.871Z,17.35
2018-02-22T04:29:17.273Z,18.27
2018-02-22T04:30:06.344Z,17.42
2018-02-22T04:30:55.392Z,19.45
2018-02-22T04:31:44.436Z,19.33
2018-02-22T04:32:33.491Z,22.55
2018-02-22T04:33:22.764Z,20.23
2018-02-22T04:34:11.812Z,19.55
2018-02-22T04:35:00.866Z,24.75
2018-02-22T04:35:49.916Z,22.50
2018-02-22T04:36:38.975Z,23.17
2018-02-22T04:37:28.113Z,26.00
2018-02-22T04:38:17.169Z,29.67
2018-02-22T04:39:06.222Z,38.60
2018-02-22T04:39:55.263Z,78.37
2018-02-22T04:40:44.312Z,142.23
2018-02-22T04:41:33.384Z,118.90
2018-02-22T04:42:22.450Z,117.47
2018-02-22T04:43:11.554Z,110.85
2018-02-22T04:44:00.603Z,106.93
2018-02-22T04:44:49.646Z,108.70
2018-02-22T04:45:38.690Z,101.05
2018-02-22T04:46:27.726Z,92.75
2018-02-22T04:47:16.779Z,63.92
2018-02-22T04:48:05.865Z,97.03
2018-02-22T04:48:54.922Z,100.35
2018-02-22T04:49:43.959Z,54.05
2018-02-22T04:50:33.009Z,66.60
2018-02-22T04:51:22.061Z,83.95
2018-02-22T04:52:11.117Z,61.67
2018-02-22T04:53:00.173Z,54.05
2018-02-22T04:53:49.440Z,51.50
2018-02-22T04:54:38.500Z,52.40
2018-02-22T04:55:27.552Z,35.30
2018-02-22T04:56:16.695Z,40.58
2018-02-22T04:57:05.740Z,41.90
2018-02-22T04:57:54.797Z,38.65
2018-02-22T04:58:43.858Z,40.30
2018-02-22T04:59:32.906Z,39.03
2018-02-22T05:00:21.956Z,40.22
2018-02-22T05:01:11.036Z,58.08
2018-02-22T05:02:03.179Z,84.05
2018-02-22T05:02:52.214Z,88.15
2018-02-22T05:03:41.304Z,72.22
2018-02-22T05:04:30.343Z,69.47
2018-02-22T05:05:19.396Z,75.93
2018-02-22T05:06:08.445Z,70.57
2018-02-22T05:06:57.505Z,71.50
2018-02-22T05:07:46.557Z,79.20
2018-02-22T05:08:35.608Z,71.07
2018-02-22T05:09:24.966Z,39.15
2018-02-22T05:10:14.002Z,50.35
2018-02-22T05:11:03.048Z,47.58
2018-02-22T05:11:52.096Z,38.05
2018-02-22T05:12:41.147Z,44.70
2018-02-22T05:13:30.238Z,39.67
2018-02-22T05:14:19.293Z,34.03
2018-02-22T05:15:08.349Z,39.03
2018-02-22T05:15:57.385Z,39.03
2018-02-22T05:16:46.456Z,33.38
2018-02-22T05:17:35.498Z,37.97
2018-02-22T05:18:24.544Z,30.20
2018-02-22T05:19:13.594Z,33.67
2018-02-22T05:20:02.639Z,34.85
2018-02-22T05:20:51.694Z,29.85
2018-02-22T05:21:40.742Z,29.10
2018-02-22T05:22:29.901Z,30.62
2018-02-22T05:23:18.960Z,29.63
2018-02-22T05:24:08.014Z,27.45
2018-02-22T05:24:57.075Z,35.17
2018-02-22T05:25:46.130Z,28.45
2018-02-22T05:26:35.173Z,24.80
2018-02-22T05:27:24.226Z,27.70
2018-02-22T05:28:13.660Z,24.52
2018-02-22T05:29:02.722Z,34.47
2018-02-22T05:29:51.804Z,33.42
2018-02-22T05:30:40.860Z,36.15
2018-02-22T05:31:29.898Z,38.13
2018-02-22T05:32:18.928Z,39.50
2018-02-22T05:33:07.998Z,47.20
2018-02-22T05:33:57.066Z,57.67
2018-02-22T05:34:46.115Z,56.75
2018-02-22T05:35:35.268Z,68.15
2018-02-22T05:36:24.320Z,50.22
2018-02-22T05:37:13.369Z,31.85
2018-02-22T05:38:02.420Z,38.72
2018-02-22T05:38:51.472Z,51.15
2018-02-22T05:39:40.526Z,48.42
2018-02-22T05:40:29.619Z,48.30
2018-02-22T05:41:18.770Z,61.37
2018-02-22T05:42:08.002Z,59.88
2018-02-22T05:42:57.054Z,50.33
2018-02-22T05:43:46.113Z,60.17
2018-02-22T05:44:35.230Z,56.50
2018-02-22T05:45:24.317Z,64.62
2018-02-22T05:46:13.373Z,72.37
2018-02-22T05:47:02.658Z,69.78
2018-02-22T05:47:51.737Z,73.65
2018-02-22T05:48:40.773Z,75.82
2018-02-22T05:49:29.806Z,68.68
2018-02-22T05:50:18.839Z,64.18
2018-02-22T05:51:07.870Z,64.90
2018-02-22T05:51:56.931Z,59.78
2018-02-22T05:52:46.005Z,72.03
2018-02-22T05:53:35.135Z,80.22
2018-02-22T05:54:24.184Z,98.95
2018-02-22T05:55:13.234Z,91.93
2018-02-22T05:56:02.277Z,90.78
2018-02-22T05:56:51.344Z,120.72
2018-02-22T05:57:40.510Z,116.05
2018-02-22T05:58:29.592Z,138.27
2018-02-22T05:59:18.642Z,116.97
2018-02-22T06:00:08.561Z,120.35
2018-02-22T06:00:57.966Z,107.43
2018-02-22T06:01:47.051Z,100.97
2018-02-22T06:02:36.143Z,80.87
2018-02-22T06:03:25.410Z,106.43
2018-02-22T06:04:14.472Z,94.10
2018-02-22T06:05:03.515Z,93.05
2018-02-22T06:05:52.554Z,78.97
2018-02-22T06:06:41.710Z,109.65
2018-02-22T06:07:30.758Z,116.43
2018-02-22T06:08:19.865Z,144.20
2018-02-22T06:09:08.932Z,127.87
2018-02-22T06:09:57.982Z,163.18
2018-02-22T06:10:47.055Z,142.60
2018-02-22T06:11:36.101Z,127.28
2018-02-22T06:12:25.154Z,137.18
2018-02-22T06:13:14.538Z,108.95
2018-02-22T06:14:03.585Z,75.95
2018-02-22T06:14:52.643Z,82.90
2018-02-22T06:15:41.703Z,129.45
2018-02-22T06:16:30.759Z,230.85
2018-02-22T06:17:19.831Z,161.25
2018-02-22T06:18:08.878Z,107.43
2018-02-22T06:18:58.961Z,113.65
2018-02-22T06:19:48.081Z,103.53
2018-02-22T06:20:37.122Z,96.87
2018-02-22T06:21:26.159Z,106.55
2018-02-22T06:22:15.259Z,139.55
2018-02-22T06:23:04.323Z,156.10
2018-02-22T06:23:53.379Z,140.00
2018-02-22T06:24:42.466Z,108.53
2018-02-22T06:25:31.511Z,121.55
2018-02-22T06:26:20.556Z,128.15
2018-02-22T06:27:09.596Z,120.22
2018-02-22T06:27:58.645Z,170.62
2018-02-22T06:28:47.691Z,147.85
2018-02-22T06:29:36.743Z,112.82
2018-02-22T06:30:25.949Z,144.68
2018-02-22T06:31:14.991Z,159.65
2018-02-22T06:32:04.978Z,338.00
2018-02-22T06:32:54.094Z,127.55
2018-02-22T06:33:43.152Z,149.43
2018-02-22T06:34:32.210Z,152.05
2018-02-22T06:35:21.256Z,107.80
2018-02-22T06:36:10.349Z,135.27
2018-02-22T06:36:59.416Z,126.32
2018-02-22T06:37:48.459Z,48.45
2018-02-22T06:38:37.500Z,63.53
2018-02-22T06:39:26.547Z,56.37
2018-02-22T06:40:15.595Z,62.35
2018-02-22T06:41:04.633Z,52.67
2018-02-22T06:41:54.011Z,52.50
2018-02-22T06:42:43.080Z,58.08
2018-02-22T06:43:32.119Z,59.85
2018-02-22T06:44:21.170Z,66.40
2018-02-22T06:45:10.232Z,59.30
2018-02-22T06:45:59.283Z,66.25
2018-02-22T06:46:48.324Z,87.85
2018-02-22T06:47:37.426Z,79.97
2018-02-22T06:48:26.496Z,68.25
2018-02-22T06:49:15.543Z,70.50
2018-02-22T06:50:04.580Z,71.70
2018-02-22T06:50:53.765Z,67.28
2018-02-22T06:51:42.810Z,72.43
2018-02-22T06:52:31.867Z,77.68
2018-02-22T06:53:20.913Z,74.25
2018-02-22T06:54:09.964Z,97.72
2018-02-22T06:54:59.024Z,86.60
2018-02-22T06:55:48.090Z,84.80
2018-02-22T06:56:37.192Z,78.15
2018-02-22T06:57:26.222Z,86.25
2018-02-22T06:58:15.301Z,101.43
2018-02-22T06:59:04.432Z,94.78
2018-02-22T06:59:53.511Z,97.18
2018-02-22T07:00:42.592Z,85.25
2018-02-22T07:01:31.644Z,58.55
2018-02-22T07:02:20.906Z,85.62
2018-02-22T07:03:09.951Z,103.15
2018-02-22T07:03:59.001Z,77.03
2018-02-22T07:04:48.094Z,89.93
2018-02-22T07:05:37.158Z,103.97
2018-02-22T07:06:26.244Z,89.60
2018-02-22T07:07:15.449Z,104.43
2018-02-22T07:08:04.512Z,106.82
2018-02-22T07:08:53.556Z,110.00
2018-02-22T07:09:42.621Z,108.40
2018-02-22T07:10:31.679Z,99.15
2018-02-22T07:11:20.721Z,105.78
2018-02-22T07:12:09.790Z,103.97
2018-02-22T07:12:58.872Z,109.50
2018-02-22T07:13:47.942Z,110.78
2018-02-22T07:14:36.997Z,119.75
2018-02-22T07:15:26.059Z,100.45
2018-02-22T07:16:15.101Z,74.18
2018-02-22T07:17:04.148Z,84.43
2018-02-22T07:17:53.190Z,64.62
2018-02-22T07:18:42.260Z,78.90
2018-02-22T07:19:31.310Z,69.05
2018-02-22T07:20:20.384Z,65.45
2018-02-22T07:21:09.431Z,49.95
2018-02-22T07:21:58.476Z,58.83
2018-02-22T07:22:47.527Z,98.80
2018-02-22T07:23:36.577Z,61.60
2018-02-22T07:24:27.475Z,75.60
2018-02-22T07:25:16.537Z,111.90
2018-02-22T07:26:05.643Z,103.30
2018-02-22T07:26:54.749Z,109.75
2018-02-22T07:27:43.795Z,127.80
2018-02-22T07:28:32.846Z,112.60
2018-02-22T07:29:21.960Z,114.62
2018-02-22T07:30:11.025Z,121.62
2018-02-22T07:31:00.089Z,125.60
2018-02-22T07:31:49.234Z,123.40
2018-02-22T07:32:38.275Z,121.57
2018-02-22T07:33:27.336Z,117.40
2018-02-22T07:34:16.436Z,108.25
2018-02-22T07:35:05.601Z,90.30
2018-02-22T07:35:54.654Z,87.43
2018-02-22T07:36:43.703Z,87.90
2018-02-22T07:37:32.807Z,95.30
2018-02-22T07:38:21.864Z,105.12
2018-02-22T07:39:10.919Z,86.40
2018-02-22T07:39:59.965Z,79.82
2018-02-22T07:40:49.171Z,79.97
2018-02-22T07:41:38.217Z,84.22
2018-02-22T07:42:30.346Z,90.70
2018-02-22T07:43:19.408Z,113.47
2018-02-22T07:44:08.473Z,341.15
2018-02-22T07:44:57.538Z,523.47
2018-02-22T07:45:46.592Z,621.37
2018-02-22T07:46:35.720Z,457.85
2018-02-22T07:47:24.781Z,506.55
2018-02-22T07:48:13.850Z,473.50
2018-02-22T07:49:02.921Z,372.10
2018-02-22T07:49:51.988Z,402.50
2018-02-22T07:50:41.038Z,1535.00
2018-02-22T07:51:30.113Z,442.95
2018-02-22T07:52:19.380Z,623.88
2018-02-22T07:53:08.457Z,202.50
2018-02-22T07:53:57.494Z,65.30
2018-02-22T07:54:46.530Z,78.93
2018-02-22T07:55:35.570Z,149.25
2018-02-22T07:56:24.635Z,120.80
2018-02-22T07:57:13.784Z,58.50
2018-02-22T07:58:02.829Z,46.42
2018-02-22T07:58:51.858Z,32.28
2018-02-22T07:59:40.901Z,31.33
2018-02-22T08:00:29.944Z,52.70
2018-02-22T08:01:19.003Z,59.60
2018-02-22T08:02:08.060Z,37.22
2018-02-22T08:02:57.145Z,44.92
2018-02-22T08:03:46.201Z,44.35
2018-02-22T08:04:35.275Z,45.17
2018-02-22T08:05:24.315Z,65.87
2018-02-22T08:06:13.366Z,49.58
2018-02-22T08:07:02.461Z,67.57
2018-02-22T08:07:51.517Z,64.43
2018-02-22T08:08:40.740Z,58.85
2018-02-22T08:09:29.793Z,56.50
2018-02-22T08:10:18.857Z,71.20
2018-02-22T08:11:07.926Z,64.10
2018-02-22T08:11:57.008Z,55.10
2018-02-22T08:12:46.076Z,40.10
2018-02-22T08:13:35.127Z,46.97
2018-02-22T08:14:25.204Z,36.70
2018-02-22T08:15:14.261Z,36.30
2018-02-22T08:16:03.316Z,38.38
2018-02-22T08:16:52.380Z,56.83
2018-02-22T08:17:41.519Z,52.65
2018-02-22T08:18:30.581Z,44.13
2018-02-22T08:19:19.618Z,37.65
2018-02-22T08:20:08.644Z,24.17
2018-02-22T08:20:57.678Z,33.70
2018-02-22T08:21:46.743Z,34.20
2018-02-22T08:22:35.787Z,49.15
2018-02-22T08:23:24.922Z,41.47
2018-02-22T08:24:14.033Z,35.08
2018-02-22T08:25:03.089Z,40.05
2018-02-22T08:25:52.234Z,38.72
2018-02-22T08:26:41.375Z,38.17
2018-02-22T08:27:30.431Z,38.78
2018-02-22T08:28:19.487Z,42.55
2018-02-22T08:29:08.541Z,42.40
2018-02-22T08:29:57.596Z,20.42
2018-02-22T08:30:46.641Z,30.70
2018-02-22T08:31:35.679Z,26.17
2018-02-22T08:32:24.772Z,30.62
2018-02-22T08:33:13.829Z,35.92
2018-02-22T08:34:02.893Z,26.02
2018-02-22T08:34:51.961Z,30.60
2018-02-22T08:35:41.010Z,29.87
2018-02-22T08:36:30.085Z,31.92
2018-02-22T08:37:19.143Z,33.60
2018-02-22T08:38:08.275Z,44.03
2018-02-22T08:38:57.315Z,41.10
2018-02-22T08:39:46.370Z,40.58
2018-02-22T08:40:35.405Z,33.13
2018-02-22T08:41:24.454Z,35.80
2018-02-22T08:42:13.521Z,39.53
2018-02-22T08:43:02.567Z,13.85
2018-02-22T08:43:51.641Z,16.73
2018-02-22T08:44:40.730Z,18.20
2018-02-22T08:45:29.753Z,17.48
2018-02-22T08:46:18.796Z,44.75
2018-02-22T08:47:07.847Z,44.45
2018-02-22T08:47:56.900Z,39.88
2018-02-22T08:48:45.950Z,28.38
2018-02-22T08:49:35.218Z,32.42
2018-02-22T08:50:25.364Z,58.67
2018-02-22T08:51:14.430Z,33.55
2018-02-22T08:52:03.503Z,16.98
2018-02-22T08:52:52.569Z,12.52
2018-02-22T08:53:41.620Z,13.30
2018-02-22T08:54:30.774Z,22.30
2018-02-22T08:55:19.833Z,22.08
2018-02-22T08:56:08.887Z,21.02
2018-02-22T08:56:57.931Z,24.75
2018-02-22T08:57:46.967Z,18.50
2018-02-22T08:58:36.025Z,18.05
2018-02-22T08:59:25.183Z,18.33
2018-02-22T09:00:14.271Z,22.17
2018-02-22T09:01:03.318Z,18.77
2018-02-22T09:01:52.355Z,20.20
2018-02-22T09:02:41.401Z,25.00
2018-02-22T09:03:30.459Z,25.75
2018-02-22T09:04:19.495Z,26.70
2018-02-22T09:05:08.552Z,26.12
2018-02-22T09:05:57.852Z,32.03
2018-02-22T09:06:46.888Z,24.80
2018-02-22T09:07:35.931Z,16.60
2018-02-22T09:08:24.974Z,22.90
2018-02-22T09:09:14.058Z,23.85
2018-02-22T09:10:03.106Z,20.90
2018-02-22T09:10:52.219Z,22.83
2018-02-22T09:11:41.256Z,19.62
2018-02-22T09:12:30.302Z,18.80
2018-02-22T09:13:19.436Z,20.58
2018-02-22T09:14:08.600Z,21.20
2018-02-22T09:14:57.666Z,18.83
2018-02-22T09:15:46.735Z,27.15
2018-02-22T09:16:35.809Z,33.85
2018-02-22T09:17:24.848Z,44.53
2018-02-22T09:18:13.887Z,31.77
2018-02-22T09:19:12.910Z,26.87
2018-02-22T09:20:02.086Z,30.05
2018-02-22T09:20:51.215Z,29.30
2018-02-22T09:21:40.309Z,25.20
2018-02-22T09:22:29.411Z,24.23
2018-02-22T09:23:18.533Z,19.33
2018-02-22T09:24:07.643Z,19.27
2018-02-22T09:24:57.934Z,251.37
2018-02-22T09:25:47.003Z,105.18
2018-02-22T09:26:36.069Z,96.72
2018-02-22T09:27:25.168Z,87.78
2018-02-22T09:28:14.224Z,69.87
2018-02-22T09:29:03.272Z,57.38
2018-02-22T09:29:52.408Z,59.50
2018-02-22T09:31:55.893Z,42.53
2018-02-22T09:32:44.959Z,31.27
2018-02-22T09:33:34.004Z,30.67
2018-02-22T09:34:23.051Z,25.65
2018-02-22T09:35:12.178Z,31.35
2018-02-22T09:36:01.276Z,34.25
2018-02-22T09:36:50.338Z,33.60
2018-02-22T09:37:39.382Z,34.60
2018-02-22T09:38:28.442Z,31.67
2018-02-22T09:39:17.494Z,30.42
2018-02-22T09:40:06.548Z,29.50
2018-02-22T09:40:55.618Z,28.73
2018-02-22T09:41:44.682Z,34.70
2018-02-22T09:42:33.737Z,37.22
2018-02-22T09:43:22.783Z,28.15
2018-02-22T09:44:11.845Z,30.90
2018-02-22T09:45:01.155Z,33.90
2018-02-22T09:45:50.206Z,40.70
2018-02-22T09:46:39.571Z,34.75
2018-02-22T09:47:28.624Z,53.42
2018-02-22T09:48:17.687Z,42.88
2018-02-22T09:49:06.723Z,36.10
2018-02-22T09:49:56.048Z,26.35
2018-02-22T09:50:45.088Z,33.67
2018-02-22T09:51:34.140Z,45.28
2018-02-22T09:52:23.233Z,66.00
2018-02-22T09:53:12.278Z,63.95
2018-02-22T09:54:01.312Z,37.10
2018-02-22T09:54:50.361Z,29.35
2018-02-22T09:55:39.411Z,33.80
2018-02-22T09:56:28.603Z,28.55
2018-02-22T09:57:17.643Z,27.95
2018-02-22T09:58:06.689Z,24.83
2018-02-22T09:58:55.735Z,31.05
2018-02-22T09:59:44.768Z,27.58
2018-02-22T10:00:33.808Z,32.40
2018-02-22T10:01:22.856Z,82.88
2018-02-22T10:02:11.938Z,66.82
2018-02-22T10:03:00.975Z,62.62
2018-02-22T10:03:50.013Z,63.42
2018-02-22T10:04:39.075Z,45.92
2018-02-22T10:05:28.137Z,35.20
2018-02-22T10:06:17.227Z,39.08
2018-02-22T10:07:06.263Z,34.78
2018-02-22T10:07:55.339Z,24.80
2018-02-22T10:08:44.387Z,31.05
2018-02-22T10:09:33.432Z,33.28
2018-02-22T10:10:22.506Z,32.00
2018-02-22T10:11:11.559Z,27.98
2018-02-22T10:12:00.615Z,39.53
2018-02-22T10:12:49.734Z,32.72
2018-02-22T10:13:39.720Z,27.90
2018-02-22T10:14:28.803Z,30.65
2018-02-22T10:15:17.854Z,34.58
2018-02-22T10:16:06.902Z,28.17
2018-02-22T10:16:55.949Z,29.65
2018-02-22T10:17:44.996Z,27.42
2018-02-22T10:18:34.103Z,34.50
2018-02-22T10:19:23.192Z,33.72
2018-02-22T10:20:12.253Z,26.40
2018-02-22T10:21:01.318Z,22.98
2018-02-22T10:21:50.376Z,20.02
2018-02-22T10:22:39.448Z,22.02
2018-02-22T10:23:28.500Z,20.55
2018-02-22T10:24:17.572Z,21.80
2018-02-22T10:25:06.655Z,22.85
2018-02-22T10:25:55.715Z,19.95
2018-02-22T10:26:44.758Z,22.48
2018-02-22T10:27:33.802Z,66.40
2018-02-22T10:28:22.851Z,38.47
2018-02-22T10:29:11.895Z,42.95
2018-02-22T10:30:00.941Z,25.48
2018-02-22T10:30:50.109Z,34.63
2018-02-22T10:31:39.157Z,33.45